createdAt,value
2023-08-29T00:00:27.840Z,98676.53
2023-08-29T00:03:32.242Z,98686.63
2023-08-29T00:06:34.244Z,98689.38
2023-08-29T00:09:36.457Z,98690.16
2023-08-29T00:12:38.253Z,98700.69
2023-08-29T00:15:40.292Z,98701.53
2023-08-29T00:18:44.870Z,98709.16
2023-08-29T00:21:48.902Z,98707.50
2023-08-29T00:24:53.497Z,98706.09
2023-08-29T00:27:55.490Z,98706.84
2023-08-29T00:30:57.380Z,98719.94
2023-08-29T00:33:59.320Z,98711.47
2023-08-29T00:37:01.288Z,98706.78
2023-08-29T00:40:04.955Z,98716.56
2023-08-29T00:43:07.093Z,98706.44
2023-08-29T00:46:09.252Z,98688.28
2023-08-29T00:49:13.145Z,98691.84
2023-08-29T00:52:15.472Z,98685.19
2023-08-29T00:55:18.404Z,98685.94
2023-08-29T00:58:20.587Z,98705.31
2023-08-29T01:01:22.910Z,98712.34
2023-08-29T01:04:24.830Z,98701.81
2023-08-29T01:07:26.914Z,98705.09
2023-08-29T01:10:38.025Z,98708.09
2023-08-29T01:14:04.057Z,98709.41
2023-08-29T01:17:12.129Z,98713.72
2023-08-29T01:20:15.676Z,98711.44
2023-08-29T01:23:29.371Z,98717.38
2023-08-29T01:26:32.317Z,98708.84
2023-08-29T01:29:35.537Z,98703.59
2023-08-29T01:32:40.116Z,98703.00
2023-08-29T01:35:48.912Z,98688.34
2023-08-29T01:38:50.843Z,98691.81
2023-08-29T01:41:52.711Z,98694.78
2023-08-29T01:44:55.499Z,98698.59
2023-08-29T01:47:57.964Z,98703.72
2023-08-29T01:50:59.872Z,98699.22
2023-08-29T01:54:01.780Z,98695.09
2023-08-29T01:57:05.017Z,98703.75
2023-08-29T02:00:08.660Z,98695.34
2023-08-29T02:03:16.459Z,98699.63
2023-08-29T02:06:18.502Z,98698.47
2023-08-29T02:09:20.593Z,98686.91
2023-08-29T02:12:22.518Z,98687.91
2023-08-29T02:15:24.439Z,98686.75
2023-08-29T02:18:26.471Z,98700.38
2023-08-29T02:21:28.354Z,98710.69
2023-08-29T02:24:30.744Z,98704.06
2023-08-29T02:27:36.260Z,98702.56
2023-08-29T02:30:38.323Z,98708.25
2023-08-29T02:33:40.287Z,98717.22
2023-08-29T02:36:42.527Z,98706.34
2023-08-29T02:39:44.508Z,98699.50
2023-08-29T02:42:46.550Z,98703.44
2023-08-29T02:45:53.053Z,98712.75
2023-08-29T02:48:54.952Z,98710.53
2023-08-29T02:51:57.975Z,98703.19
2023-08-29T02:54:59.998Z,98701.44
2023-08-29T02:58:02.180Z,98700.97
2023-08-29T03:01:07.365Z,98710.09
2023-08-29T03:04:09.300Z,98727.84
2023-08-29T03:07:11.681Z,98719.69
2023-08-29T03:10:13.622Z,98714.97
2023-08-29T03:13:15.488Z,98717.44
2023-08-29T03:16:20.269Z,98716.13
2023-08-29T03:19:22.831Z,98730.91
2023-08-29T03:22:25.605Z,98733.03
2023-08-29T03:25:27.465Z,98731.16
2023-08-29T03:28:29.573Z,98740.00
2023-08-29T03:31:31.677Z,98743.53
2023-08-29T03:34:35.932Z,98743.78
2023-08-29T03:37:37.857Z,98741.97
2023-08-29T03:40:39.744Z,98737.94
2023-08-29T03:43:41.707Z,98738.84
2023-08-29T03:46:44.416Z,98737.66
2023-08-29T03:49:46.290Z,98729.09
2023-08-29T03:52:48.353Z,98734.63
2023-08-29T03:55:51.397Z,98747.50
2023-08-29T03:58:53.161Z,98749.72
2023-08-29T04:01:55.171Z,98760.22
2023-08-29T04:05:13.264Z,98778.53
2023-08-29T04:08:16.246Z,98781.00
2023-08-29T04:11:18.235Z,98769.59
2023-08-29T04:14:20.294Z,98778.09
2023-08-29T04:17:22.209Z,98783.88
2023-08-29T04:20:24.308Z,98792.97
2023-08-29T04:23:27.117Z,98778.00
2023-08-29T04:26:29.311Z,98786.75
2023-08-29T04:29:31.211Z,98801.13
2023-08-29T04:32:35.684Z,98807.31
2023-08-29T04:35:37.712Z,98805.44
2023-08-29T04:38:39.928Z,98800.41
2023-08-29T04:41:41.890Z,98798.25
2023-08-29T04:44:45.840Z,98807.09
2023-08-29T04:47:49.183Z,98818.16
2023-08-29T04:50:51.171Z,98816.69
2023-08-29T04:53:53.065Z,98829.00
2023-08-29T04:56:54.984Z,98824.28
2023-08-29T04:59:56.924Z,98831.13
2023-08-29T05:02:59.071Z,98827.97
2023-08-29T05:06:01.078Z,98835.72
2023-08-29T05:09:03.296Z,98830.91
2023-08-29T05:12:05.999Z,98830.16
2023-08-29T05:15:09.180Z,98837.53
2023-08-29T05:18:12.188Z,98839.25
2023-08-29T05:21:14.189Z,98836.72
2023-08-29T05:24:16.057Z,98836.06
2023-08-29T05:27:17.930Z,98832.94
2023-08-29T05:30:19.990Z,98833.63
2023-08-29T05:33:22.007Z,98835.19
2023-08-29T05:36:23.970Z,98833.38
2023-08-29T05:39:25.922Z,98817.09
2023-08-29T05:42:28.151Z,98805.97
2023-08-29T05:45:30.161Z,98800.66
2023-08-29T05:48:32.123Z,98804.72
2023-08-29T05:51:34.170Z,98812.25
2023-08-29T05:54:37.813Z,98811.38
2023-08-29T05:57:39.657Z,98820.66
2023-08-29T06:00:41.638Z,98816.06
2023-08-29T06:03:43.851Z,98823.75
2023-08-29T06:06:45.829Z,98817.47
2023-08-29T06:09:47.756Z,98826.47
2023-08-29T06:12:49.904Z,98832.19
2023-08-29T06:15:51.807Z,98834.69
2023-08-29T06:18:53.744Z,98823.81
2023-08-29T06:21:55.643Z,98820.59
2023-08-29T06:24:57.599Z,98818.78
2023-08-29T06:27:59.571Z,98831.50
2023-08-29T06:31:11.039Z,98825.56
2023-08-29T06:34:13.459Z,98839.72
2023-08-29T06:37:16.198Z,98848.72
2023-08-29T06:40:18.171Z,98845.41
2023-08-29T06:43:20.109Z,98839.50
2023-08-29T06:46:22.055Z,98844.59
2023-08-29T06:49:23.988Z,98844.44
2023-08-29T06:52:27.771Z,98843.63
2023-08-29T06:55:29.987Z,98845.53
2023-08-29T06:58:31.842Z,98838.13
2023-08-29T07:01:34.201Z,98837.56
2023-08-29T07:04:36.141Z,98843.88
2023-08-29T07:07:38.742Z,98848.28
2023-08-29T07:10:40.605Z,98852.09
2023-08-29T07:13:42.583Z,98841.66
2023-08-29T07:16:50.609Z,98846.91
2023-08-29T07:20:03.579Z,98843.28
2023-08-29T07:23:10.933Z,98846.47
2023-08-29T07:26:12.872Z,98855.47
2023-08-29T07:29:14.719Z,98859.03
2023-08-29T07:32:16.581Z,98859.13
2023-08-29T07:35:18.510Z,98864.50
2023-08-29T07:38:20.428Z,98871.78
2023-08-29T07:41:22.304Z,98865.38
2023-08-29T07:44:24.200Z,98872.94
2023-08-29T07:47:26.195Z,98859.84
2023-08-29T07:50:28.786Z,98867.47
2023-08-29T07:53:30.779Z,98877.88
2023-08-29T07:56:32.535Z,98873.81
2023-08-29T07:59:34.404Z,98873.69
2023-08-29T08:02:39.616Z,98862.78
2023-08-29T08:05:41.651Z,98863.31
2023-08-29T08:08:43.503Z,98864.50
2023-08-29T08:11:45.500Z,98861.34
2023-08-29T08:14:47.313Z,98865.44
2023-08-29T08:17:49.829Z,98871.06
2023-08-29T08:20:51.774Z,98867.66
2023-08-29T08:23:53.607Z,98865.34
2023-08-29T08:26:55.513Z,98856.44
2023-08-29T08:29:57.778Z,98846.75
2023-08-29T08:32:59.541Z,98840.81
2023-08-29T08:36:01.380Z,98851.19
2023-08-29T08:39:05.054Z,98849.97
2023-08-29T08:42:07.084Z,98856.94
2023-08-29T08:45:11.664Z,98860.69
2023-08-29T08:48:14.345Z,98853.22
2023-08-29T08:51:20.385Z,98851.19
2023-08-29T08:54:22.229Z,98846.16
2023-08-29T08:57:24.774Z,98853.84
2023-08-29T09:00:26.679Z,98849.22
2023-08-29T09:03:28.577Z,98847.16
2023-08-29T09:06:31.682Z,98849.38
2023-08-29T09:09:33.734Z,98854.72
2023-08-29T09:12:35.780Z,98848.34
2023-08-29T09:15:39.158Z,98852.97
2023-08-29T09:18:44.720Z,98855.25
2023-08-29T09:21:46.645Z,98861.66
2023-08-29T09:24:50.363Z,98859.91
2023-08-29T09:27:52.334Z,98859.97
2023-08-29T09:30:54.567Z,98861.72
2023-08-29T09:33:56.547Z,98863.06
2023-08-29T09:36:59.679Z,98862.03
2023-08-29T09:40:11.283Z,98858.91
2023-08-29T09:43:23.389Z,98851.44
2023-08-29T09:46:30.857Z,98850.03
2023-08-29T09:49:43.868Z,98848.66
2023-08-29T09:52:46.606Z,98848.56
2023-08-29T09:55:54.486Z,98856.38
2023-08-29T09:59:00.718Z,98846.88
2023-08-29T10:02:05.106Z,98850.41
2023-08-29T10:05:13.353Z,98837.59
2023-08-29T10:08:25.216Z,98841.72
2023-08-29T10:11:32.416Z,98845.84
2023-08-29T10:14:39.816Z,98841.97
2023-08-29T10:17:44.006Z,98845.75
2023-08-29T10:20:47.333Z,98845.38
2023-08-29T10:23:52.749Z,98838.38
2023-08-29T10:26:55.257Z,98834.97
2023-08-29T10:29:57.334Z,98829.06
2023-08-29T10:32:59.980Z,98835.00
2023-08-29T10:36:05.028Z,98835.56
2023-08-29T10:39:10.769Z,98833.78
2023-08-29T10:42:15.605Z,98836.09
2023-08-29T10:45:17.798Z,98836.91
2023-08-29T10:48:46.182Z,98834.47
2023-08-29T10:52:08.604Z,98834.75
2023-08-29T10:55:21.888Z,98836.50
2023-08-29T10:58:42.767Z,98845.41
2023-08-29T11:01:44.745Z,98846.63
2023-08-29T11:04:55.934Z,98834.81
2023-08-29T11:08:24.037Z,98834.31
2023-08-29T11:11:25.926Z,98838.34
2023-08-29T11:14:54.437Z,98841.88
2023-08-29T11:18:24.775Z,98844.78
2023-08-29T11:21:27.099Z,98847.66
2023-08-29T11:24:30.482Z,98838.84
2023-08-29T11:27:39.413Z,98845.34
2023-08-29T11:30:44.802Z,98847.19
2023-08-29T11:33:48.000Z,98840.94
2023-08-29T11:36:52.329Z,98835.44
2023-08-29T11:39:56.743Z,98842.41
2023-08-29T11:43:49.927Z,98835.53
2023-08-29T11:46:21.255Z,98835.91
2023-08-29T11:49:23.184Z,98841.44
2023-08-29T11:52:25.251Z,98833.78
2023-08-29T11:55:27.383Z,98832.19
2023-08-29T11:58:30.699Z,98839.38
2023-08-29T12:01:37.699Z,98824.78
2023-08-29T12:04:43.793Z,98830.75
2023-08-29T12:07:46.222Z,98827.22
2023-08-29T12:10:54.014Z,98827.56
2023-08-29T12:14:08.287Z,98826.66
2023-08-29T12:17:10.698Z,98831.28
2023-08-29T12:20:12.511Z,98824.47
2023-08-29T12:23:23.864Z,98826.88
2023-08-29T12:26:26.302Z,98826.72
2023-08-29T12:29:28.227Z,98822.97
2023-08-29T12:32:30.797Z,98822.59
2023-08-29T12:35:32.704Z,98835.47
2023-08-29T12:38:34.712Z,98834.41
2023-08-29T12:41:37.566Z,98830.59
2023-08-29T12:44:39.531Z,98813.56
2023-08-29T12:47:41.540Z,98813.66
2023-08-29T12:50:44.000Z,98805.91
2023-08-29T12:53:45.829Z,98812.75
2023-08-29T12:56:47.783Z,98807.59
2023-08-29T12:59:49.748Z,98804.91
2023-08-29T13:02:52.310Z,98804.34
2023-08-29T13:05:54.529Z,98802.72
2023-08-29T13:08:57.733Z,98806.25
2023-08-29T13:11:59.549Z,98797.38
2023-08-29T13:15:01.435Z,98802.22
2023-08-29T13:18:04.062Z,98798.09
2023-08-29T13:21:05.981Z,98804.28
2023-08-29T13:24:08.368Z,98802.44
2023-08-29T13:27:10.481Z,98805.22
2023-08-29T13:30:13.664Z,98804.72
2023-08-29T13:33:15.570Z,98792.56
2023-08-29T13:36:17.496Z,98802.63
2023-08-29T13:39:19.453Z,98796.78
2023-08-29T13:42:21.380Z,98803.75
2023-08-29T13:45:23.330Z,98798.72
2023-08-29T13:48:25.282Z,98787.97
2023-08-29T13:51:27.404Z,98788.84
2023-08-29T13:54:29.318Z,98792.13
2023-08-29T13:57:31.961Z,98790.81
2023-08-29T14:00:33.975Z,98795.22
2023-08-29T14:03:39.106Z,98798.16
2023-08-29T14:06:41.546Z,98802.75
2023-08-29T14:09:43.653Z,98797.91
2023-08-29T14:12:46.197Z,98801.59
2023-08-29T14:15:48.097Z,98794.72
2023-08-29T14:18:50.029Z,98802.75
2023-08-29T14:21:51.993Z,98796.72
2023-08-29T14:24:53.928Z,98801.31
2023-08-29T14:27:58.452Z,98792.81
2023-08-29T14:31:00.449Z,98802.13
2023-08-29T14:34:02.393Z,98793.31
2023-08-29T14:37:05.132Z,98791.34
2023-08-29T14:40:08.102Z,98789.38
2023-08-29T14:43:10.570Z,98799.75
2023-08-29T14:46:12.477Z,98785.22
2023-08-29T14:49:16.406Z,98792.19
2023-08-29T14:52:18.369Z,98789.16
2023-08-29T14:55:22.670Z,98792.31
2023-08-29T14:58:25.791Z,98794.81
2023-08-29T15:01:28.134Z,98786.00
2023-08-29T15:04:30.054Z,98791.69
2023-08-29T15:07:32.009Z,98786.38
2023-08-29T15:10:34.224Z,98798.28
2023-08-29T15:13:36.300Z,98789.56
2023-08-29T15:16:38.226Z,98792.50
2023-08-29T15:19:40.488Z,98799.06
2023-08-29T15:22:45.382Z,98810.00
2023-08-29T15:25:47.270Z,98803.44
2023-08-29T15:28:49.312Z,98808.03
2023-08-29T15:31:51.222Z,98812.56
2023-08-29T15:34:53.179Z,98811.13
2023-08-29T15:37:55.137Z,98814.88
2023-08-29T15:40:57.055Z,98819.94
2023-08-29T15:43:58.944Z,98817.34
2023-08-29T15:47:01.707Z,98825.28
2023-08-29T15:50:04.230Z,98828.75
2023-08-29T15:53:06.127Z,98821.75
2023-08-29T15:56:08.498Z,98833.97
2023-08-29T15:59:10.324Z,98836.34
2023-08-29T16:02:12.324Z,98836.25
2023-08-29T16:05:14.560Z,98836.16
2023-08-29T16:08:16.904Z,98838.59
2023-08-29T16:11:20.640Z,98832.13
2023-08-29T16:14:23.397Z,98842.97
2023-08-29T16:17:26.475Z,98843.31
2023-08-29T16:20:28.466Z,98847.53
2023-08-29T16:23:30.845Z,98844.06
2023-08-29T16:26:32.760Z,98859.00
2023-08-29T16:29:34.739Z,98850.88
2023-08-29T16:32:36.933Z,98849.81
2023-08-29T16:35:38.874Z,98847.66
2023-08-29T16:38:41.083Z,98849.09
2023-08-29T16:41:42.887Z,98856.06
2023-08-29T16:44:44.802Z,98858.81
2023-08-29T16:47:46.825Z,98859.97
2023-08-29T16:50:50.950Z,98865.22
2023-08-29T16:53:52.814Z,98866.66
2023-08-29T16:56:54.570Z,98872.22
2023-08-29T17:00:01.761Z,98878.78
2023-08-29T17:03:11.180Z,98883.50
2023-08-29T17:06:14.045Z,98890.38
2023-08-29T17:09:15.988Z,98897.56
2023-08-29T17:12:18.896Z,98895.97
2023-08-29T17:15:20.819Z,98895.97
2023-08-29T17:18:22.635Z,98892.16
2023-08-29T17:21:24.841Z,98894.09
2023-08-29T17:24:27.237Z,98900.44
2023-08-29T17:27:29.230Z,98890.56
2023-08-29T17:30:31.038Z,98891.91
2023-08-29T17:33:33.040Z,98899.03
2023-08-29T17:36:34.889Z,98902.34
2023-08-29T17:39:37.278Z,98907.28
2023-08-29T17:42:43.838Z,98901.78
2023-08-29T17:45:46.088Z,98898.78
2023-08-29T17:48:48.033Z,98907.00
2023-08-29T17:51:50.012Z,98908.63
2023-08-29T17:54:52.209Z,98910.81
2023-08-29T17:57:54.212Z,98915.47
2023-08-29T18:00:55.966Z,98914.63
2023-08-29T18:03:59.848Z,98910.53
2023-08-29T18:07:01.860Z,98912.47
2023-08-29T18:10:10.988Z,98909.38
2023-08-29T18:13:13.812Z,98913.22
2023-08-29T18:16:15.771Z,98908.81
2023-08-29T18:19:17.766Z,98903.03
2023-08-29T18:22:19.675Z,98898.91
2023-08-29T18:25:21.630Z,98905.75
2023-08-29T18:28:23.516Z,98905.47
2023-08-29T18:31:25.478Z,98904.09
2023-08-29T18:34:27.336Z,98911.72
2023-08-29T18:37:29.242Z,98910.09
2023-08-29T18:40:31.362Z,98909.78
2023-08-29T18:43:33.154Z,98917.41
2023-08-29T18:46:35.365Z,98919.59
2023-08-29T18:49:37.284Z,98918.22
2023-08-29T18:52:39.393Z,98915.69
2023-08-29T18:55:45.267Z,98917.81
2023-08-29T18:58:47.301Z,98922.69
2023-08-29T19:01:49.267Z,98923.75
2023-08-29T19:04:51.576Z,98921.81
2023-08-29T19:07:55.753Z,98920.44
2023-08-29T19:11:06.212Z,98917.97
2023-08-29T19:14:08.542Z,98916.28
2023-08-29T19:17:10.437Z,98915.97
2023-08-29T19:20:12.550Z,98918.13
2023-08-29T19:23:14.679Z,98921.34
2023-08-29T19:26:16.618Z,98915.59
2023-08-29T19:29:20.091Z,98913.97
2023-08-29T19:32:22.142Z,98921.88
2023-08-29T19:35:27.079Z,98921.56
2023-08-29T19:38:28.973Z,98918.75
2023-08-29T19:41:32.060Z,98921.50
2023-08-29T19:44:34.030Z,98925.56
2023-08-29T19:47:35.925Z,98929.09
2023-08-29T19:50:37.891Z,98923.88
2023-08-29T19:53:39.692Z,98926.56
2023-08-29T19:56:41.653Z,98922.97
2023-08-29T19:59:43.615Z,98912.81
2023-08-29T20:02:48.005Z,98916.31
2023-08-29T20:05:50.179Z,98912.16
2023-08-29T20:08:52.696Z,98904.25
2023-08-29T20:11:55.147Z,98902.56
2023-08-29T20:14:57.083Z,98898.44
2023-08-29T20:17:59.541Z,98901.34
2023-08-29T20:21:02.237Z,98895.56
2023-08-29T20:24:04.763Z,98894.16
2023-08-29T20:27:06.742Z,98906.44
2023-08-29T20:30:10.895Z,98905.56
2023-08-29T20:33:12.793Z,98906.63
2023-08-29T20:36:14.777Z,98913.44
2023-08-29T20:39:16.756Z,98910.38
2023-08-29T20:42:18.730Z,98909.81
2023-08-29T20:45:23.115Z,98915.53
2023-08-29T20:48:26.163Z,98918.19
2023-08-29T20:51:30.393Z,98920.38
2023-08-29T20:54:32.229Z,98922.00
2023-08-29T20:57:34.213Z,98929.38
2023-08-29T21:00:36.317Z,98927.16
2023-08-29T21:03:38.334Z,98924.38
2023-08-29T21:06:40.403Z,98921.59
2023-08-29T21:09:42.459Z,98923.94
2023-08-29T21:12:44.412Z,98929.09
2023-08-29T21:15:47.139Z,98932.56
2023-08-29T21:18:49.019Z,98932.56
2023-08-29T21:21:50.965Z,98939.88
2023-08-29T21:24:53.919Z,98945.19
2023-08-29T21:27:55.798Z,98944.56
2023-08-29T21:30:57.838Z,98945.06
2023-08-29T21:33:59.717Z,98940.09
2023-08-29T21:37:01.633Z,98946.06
2023-08-29T21:40:05.950Z,98940.25
2023-08-29T21:43:09.847Z,98942.31
2023-08-29T21:46:11.847Z,98942.56
2023-08-29T21:49:13.689Z,98944.41
2023-08-29T21:52:15.617Z,98956.56
2023-08-29T21:55:17.537Z,98954.59
2023-08-29T21:58:23.169Z,98961.94
2023-08-29T22:01:25.153Z,98957.81
2023-08-29T22:04:27.056Z,98961.63
2023-08-29T22:07:29.132Z,98960.22
2023-08-29T22:10:32.329Z,98960.47
2023-08-29T22:13:35.912Z,98962.28
2023-08-29T22:16:37.808Z,98966.91
2023-08-29T22:19:39.697Z,98964.44
2023-08-29T22:22:42.040Z,98967.41
2023-08-29T22:25:44.806Z,98967.06
2023-08-29T22:28:46.568Z,98969.72
2023-08-29T22:31:48.489Z,98966.75
2023-08-29T22:34:50.539Z,98961.78
2023-08-29T22:37:53.084Z,98960.38
2023-08-29T22:40:55.244Z,98960.88
2023-08-29T22:43:57.178Z,98958.38
2023-08-29T22:46:59.178Z,98949.03
2023-08-29T22:50:01.254Z,98953.59
2023-08-29T22:53:03.438Z,98956.56
2023-08-29T22:56:06.257Z,98961.69
2023-08-29T22:59:08.114Z,98967.63
2023-08-29T23:02:10.124Z,98964.78
2023-08-29T23:05:12.196Z,98966.56
2023-08-29T23:08:14.963Z,98959.03
2023-08-29T23:11:16.984Z,98967.34
2023-08-29T23:14:26.865Z,98977.69
2023-08-29T23:17:29.440Z,98976.03
2023-08-29T23:20:31.526Z,98975.44
2023-08-29T23:23:34.887Z,98977.00
2023-08-29T23:26:37.347Z,98982.69
2023-08-29T23:29:39.431Z,98976.34
2023-08-29T23:32:41.352Z,98976.97
2023-08-29T23:35:43.220Z,98980.75
2023-08-29T23:38:45.245Z,98983.97
2023-08-29T23:41:49.040Z,98982.53
2023-08-29T23:44:51.013Z,98987.88
2023-08-29T23:47:53.034Z,98983.50
2023-08-29T23:50:54.980Z,98974.75
2023-08-29T23:53:56.991Z,98978.66
2023-08-29T23:56:58.935Z,98989.78
